Time;durP1;ratioP1;P1;durP2;ratioP2;P2;SDS_P1;SDS_P2;PMS_P1;PMS_P2;Temp;Humidity;BMP_temperature;BMP_pressure;BME280_temperature;BME280_humidity;BME280_pressure;Samples;Min_cycle;Max_cycle;Signal;HPM_P1;HPM_P2
2022/05/06 00:00:07;;;;;;;8.48;5.13;;;15.50;56.50;;;;;;5079367;28;20048;-77
2022/05/06 00:02:34;;;;;;;9.90;4.38;;;15.50;56.90;;;;;;5096650;28;20118;-75
2022/05/06 00:05:00;;;;;;;7.72;4.57;;;15.50;56.80;;;;;;5096743;28;20059;-77
2022/05/06 00:07:27;;;;;;;10.02;4.47;;;15.60;56.90;;;;;;5096044;28;20074;-73
2022/05/06 00:09:54;;;;;;;8.20;4.90;;;15.60;56.80;;;;;;5114765;28;20039;-78
2022/05/06 00:12:20;;;;;;;8.80;4.85;;;15.50;56.70;;;;;;5079138;28;20561;-78
2022/05/06 00:14:47;;;;;;;9.18;5.60;;;15.50;57.40;;;;;;5095872;28;20067;-77
2022/05/06 00:17:13;;;;;;;9.18;4.60;;;15.50;56.80;;;;;;5114525;28;20039;-74
2022/05/06 00:19:41;;;;;;;6.97;4.45;;;15.50;56.50;;;;;;5079339;28;20057;-78
2022/05/06 00:22:09;;;;;;;7.47;4.40;;;15.50;57.10;;;;;;5096520;28;20175;-74
2022/05/06 00:24:35;;;;;;;7.80;4.53;;;15.50;56.50;;;;;;5096013;28;20469;-78
2022/05/06 00:27:01;;;;;;;;;;;15.50;57.10;;;;;;5079667;28;20430;-73
2022/05/06 00:29:27;;;;;;;7.68;4.38;;;15.50;56.40;;;;;;5095382;28;19920;-74
2022/05/06 00:31:53;;;;;;;8.52;3.97;;;15.50;57.00;;;;;;5114281;28;20036;-76
2022/05/06 00:34:19;;;;;;;8.88;4.72;;;15.50;57.20;;;;;;5113541;28;20110;-74
2022/05/06 00:36:46;;;;;;;8.23;4.28;;;15.50;57.20;;;;;;5095633;28;20039;-74
2022/05/06 00:39:12;;;;;;;9.02;4.57;;;15.40;57.20;;;;;;5078861;28;20067;-78
2022/05/06 00:41:38;;;;;;;;;;;15.40;57.40;;;;;;5096235;28;20076;-74
2022/05/06 00:44:24;;;;;;;8.38;4.80;;;15.50;56.80;;;;;;5095095;28;20178;-74
2022/05/06 00:46:52;;;;;;;7.80;4.93;;;15.40;57.30;;;;;;5095891;28;20055;-78
2022/05/06 00:49:19;;;;;;;11.88;4.88;;;15.40;57.40;;;;;;5096072;28;20071;-77
2022/05/06 00:51:45;;;;;;;7.55;4.28;;;15.40;57.70;;;;;;5095261;28;20027;-78
2022/05/06 00:54:12;;;;;;;;;;;15.40;57.90;;;;;;5114559;28;20031;-74
2022/05/06 00:56:39;;;;;;;9.23;4.82;;;15.40;57.00;;;;;;5095499;28;20020;-72
2022/05/06 00:59:05;;;;;;;;;;;15.40;57.00;;;;;;5095427;28;20075;-77
2022/05/06 01:01:31;;;;;;;8.93;5.13;;;15.40;57.00;;;;;;5095167;28;19915;-72
2022/05/06 01:03:57;;;;;;;9.25;5.35;;;15.40;57.70;;;;;;5078416;28;20031;-78
2022/05/06 01:06:24;;;;;;;9.45;4.93;;;15.40;57.80;;;;;;5095142;28;20076;-78
2022/05/06 01:08:50;;;;;;;9.90;5.63;;;15.40;57.90;;;;;;5113749;28;20031;-75
2022/05/06 01:11:18;;;;;;;8.18;5.03;;;15.40;58.10;;;;;;5094952;28;20472;-74
2022/05/06 01:13:46;;;;;;;8.38;5.30;;;15.40;58.20;;;;;;5094844;28;20036;-76
2022/05/06 01:16:13;;;;;;;11.07;5.57;;;15.40;58.30;;;;;;5095118;28;20319;-74
2022/05/06 01:18:39;;;;;;;10.00;5.82;;;15.40;58.40;;;;;;5095288;28;20429;-77
2022/05/06 01:21:06;;;;;;;12.00;5.57;;;15.40;58.30;;;;;;5078074;28;20031;-74
2022/05/06 01:23:35;;;;;;;8.73;5.55;;;15.40;59.10;;;;;;5113487;28;20036;-78
2022/05/06 01:26:01;;;;;;;11.20;6.07;;;15.40;59.10;;;;;;5112869;28;20039;-77
2022/05/06 01:28:29;;;;;;;9.10;5.32;;;15.40;59.40;;;;;;5112404;28;20032;-74
2022/05/06 01:31:03;;;;;;;10.45;5.63;;;15.40;59.60;;;;;;5094439;28;20031;-77
2022/05/06 01:33:31;;;;;;;9.43;5.15;;;15.30;59.60;;;;;;5095919;28;20050;-74
2022/05/06 01:36:18;;;;;;;9.82;4.90;;;15.40;59.50;;;;;;5094869;28;20070;-77
2022/05/06 01:38:49;;;;;;;8.35;5.13;;;15.40;59.50;;;;;;5095104;28;20042;-75
2022/05/06 01:41:29;;;;;;;7.80;4.57;;;15.40;59.60;;;;;;5094763;28;20077;-77
2022/05/06 01:44:01;;;;;;;11.23;5.43;;;15.30;59.80;;;;;;5077469;28;20542;-77
2022/05/06 01:46:29;;;;;;;9.07;5.05;;;15.30;60.00;;;;;;5093964;28;20032;-74
2022/05/06 01:48:56;;;;;;;8.75;4.60;;;15.30;60.00;;;;;;5095311;28;20484;-74
2022/05/06 01:51:23;;;;;;;10.73;5.85;;;15.20;59.80;;;;;;5094587;28;20039;-74
2022/05/06 01:53:50;;;;;;;9.63;5.13;;;15.20;59.80;;;;;;5113130;28;20365;-77
2022/05/06 01:56:35;;;;;;;8.23;5.55;;;15.20;59.80;;;;;;5094560;28;20036;-74
2022/05/06 01:59:01;;;;;;;10.48;6.30;;;15.30;59.50;;;;;;5093789;28;20046;-77
2022/05/06 02:01:29;;;;;;;;;;;15.20;59.90;;;;;;5094905;28;20035;-74
2022/05/06 02:06:40;;;;;;;12.77;6.43;;;15.20;59.80;;;;;;5112560;28;20039;-77
2022/05/06 02:09:06;;;;;;;11.20;6.95;;;15.20;60.10;;;;;;5094764;28;20042;-74
2022/05/06 02:11:32;;;;;;;13.90;6.57;;;15.20;60.20;;;;;;5094315;28;20425;-75
2022/05/06 02:13:58;;;;;;;;;;;15.20;61.00;;;;;;5112641;28;20119;-72
2022/05/06 02:16:24;;;;;;;10.77;6.70;;;15.20;59.30;;;;;;5094298;28;20299;-73
2022/05/06 02:18:51;;;;;;;11.18;6.88;;;15.20;59.90;;;;;;5094485;28;20497;-77
2022/05/06 02:21:17;;;;;;;;;;;15.20;60.00;;;;;;5094487;28;20070;-78
2022/05/06 02:23:43;;;;;;;16.08;6.82;;;15.20;59.30;;;;;;5094448;28;19920;-74
2022/05/06 02:26:09;;;;;;;9.85;5.93;;;15.20;59.80;;;;;;5094259;28;20040;-74
2022/05/06 02:28:35;;;;;;;7.85;4.70;;;15.20;60.20;;;;;;5094291;28;20051;-77
2022/05/06 02:33:45;;;;;;;8.02;5.13;;;15.10;60.60;;;;;;5097432;28;20309;-77
2022/05/06 02:36:12;;;;;;;8.43;5.22;;;15.10;60.80;;;;;;5093794;28;20043;-77
2022/05/06 02:38:38;;;;;;;;;;;15.10;60.70;;;;;;5113119;28;20433;-75
2022/05/06 02:41:04;;;;;;;10.00;5.47;;;15.10;60.00;;;;;;5094264;28;20002;-76
2022/05/06 02:43:30;;;;;;;10.77;5.93;;;15.10;60.70;;;;;;5112623;28;20042;-77
2022/05/06 02:45:56;;;;;;;10.63;5.70;;;15.10;61.00;;;;;;5072813;28;20028;-74
2022/05/06 02:48:23;;;;;;;10.48;6.05;;;15.10;61.00;;;;;;5073927;28;20062;-77
2022/05/06 02:50:49;;;;;;;11.07;6.55;;;15.10;61.00;;;;;;5091537;28;20028;-74
2022/05/06 02:53:15;;;;;;;;;;;15.10;60.50;;;;;;5092645;28;20039;-74
2022/05/06 02:55:41;;;;;;;14.15;7.18;;;15.10;60.20;;;;;;5073826;28;19918;-75
2022/05/06 02:58:09;;;;;;;13.88;7.88;;;15.00;60.70;;;;;;5076277;28;20487;-73
2022/05/06 03:00:36;;;;;;;12.00;7.10;;;15.00;61.10;;;;;;5097002;28;20080;-74
2022/05/06 03:03:03;;;;;;;12.02;6.85;;;15.00;61.20;;;;;;5098430;28;20035;-77
2022/05/06 03:05:29;;;;;;;13.95;7.35;;;15.00;60.80;;;;;;5097495;28;20385;-75
2022/05/06 03:07:56;;;;;;;12.20;7.40;;;15.10;61.50;;;;;;5116497;28;20039;-75
2022/05/06 03:10:22;;;;;;;10.95;7.20;;;15.10;61.70;;;;;;5080456;28;20081;-77
2022/05/06 03:12:48;;;;;;;10.95;5.90;;;15.10;61.80;;;;;;5097612;28;20027;-75
2022/05/06 03:15:16;;;;;;;12.07;7.03;;;15.10;61.80;;;;;;5096388;28;20521;-77
2022/05/06 03:17:42;;;;;;;14.00;6.70;;;15.00;61.90;;;;;;5115822;28;20054;-75
2022/05/06 03:20:09;;;;;;;10.10;5.45;;;15.00;62.10;;;;;;5115503;28;20044;-75
2022/05/06 03:22:55;;;;;;;9.82;6.40;;;14.90;62.50;;;;;;5116209;28;20031;-77
2022/05/06 03:25:21;;;;;;;11.13;6.43;;;14.90;62.60;;;;;;5096686;28;20040;-74
2022/05/06 03:28:07;;;;;;;9.52;5.80;;;14.90;62.40;;;;;;5097723;28;20039;-77
2022/05/06 03:30:53;;;;;;;10.00;6.25;;;14.90;62.30;;;;;;5099170;28;20044;-74
2022/05/06 03:33:19;;;;;;;10.20;6.00;;;14.90;62.30;;;;;;5097337;28;20035;-77
2022/05/06 03:35:45;;;;;;;;;;;15.00;62.30;;;;;;5097552;28;20062;-77
2022/05/06 03:38:11;;;;;;;13.13;5.97;;;15.00;61.50;;;;;;5097247;28;20004;-78
2022/05/06 03:40:37;;;;;;;11.40;6.47;;;14.90;62.00;;;;;;5096849;28;20039;-74
2022/05/06 03:43:04;;;;;;;10.52;6.30;;;14.90;62.20;;;;;;5097265;28;20051;-72
2022/05/06 03:45:30;;;;;;;12.77;6.70;;;14.90;62.00;;;;;;5095916;28;20039;-73
2022/05/06 03:47:59;;;;;;;10.27;5.85;;;14.90;62.60;;;;;;5096978;28;20032;-75
2022/05/06 03:53:11;;;;;;;9.98;5.80;;;14.90;62.70;;;;;;5100191;28;20041;-77
2022/05/06 03:55:37;;;;;;;9.98;6.22;;;14.90;62.60;;;;;;5114880;28;20107;-75
2022/05/06 03:58:03;;;;;;;12.93;6.55;;;14.90;62.60;;;;;;5097154;28;20095;-75
2022/05/06 04:00:29;;;;;;;10.10;6.47;;;14.90;62.60;;;;;;5113740;28;20039;-77
2022/05/06 04:02:55;;;;;;;10.65;6.00;;;15.00;62.70;;;;;;5115289;28;20118;-78
2022/05/06 04:05:21;;;;;;;11.60;6.00;;;15.00;62.70;;;;;;5079158;28;20028;-78
2022/05/06 04:07:48;;;;;;;9.30;5.57;;;15.00;62.70;;;;;;5096247;28;20040;-74
2022/05/06 04:10:14;;;;;;;13.02;6.03;;;15.00;62.20;;;;;;5113296;28;20045;-77
2022/05/06 04:12:40;;;;;;;12.50;7.60;;;14.90;63.10;;;;;;5096697;28;20545;-77
2022/05/06 04:15:07;;;;;;;13.60;6.80;;;14.90;63.00;;;;;;5113638;28;20404;-77
2022/05/06 04:17:33;;;;;;;19.10;6.28;;;14.90;63.00;;;;;;5096367;28;20176;-75
2022/05/06 04:25:28;;;;;;;8.85;5.15;;;14.80;64.10;;;;;;5114014;28;20074;-77
2022/05/06 04:27:54;;;;;;;;;;;14.70;63.50;;;;;;5115577;28;20472;-77
2022/05/06 04:30:20;;;;;;;10.35;5.18;;;14.70;63.00;;;;;;5094870;28;19964;-75
2022/05/06 04:32:47;;;;;;;8.88;5.55;;;14.70;63.20;;;;;;5096131;28;20051;-77
2022/05/06 04:35:15;;;;;;;12.35;6.55;;;14.70;63.30;;;;;;5095640;28;20047;-75
2022/05/06 04:37:43;;;;;;;10.55;6.57;;;14.80;63.20;;;;;;5114270;28;20396;-77
2022/05/06 04:40:09;;;;;;;16.58;6.32;;;14.70;63.50;;;;;;5095747;28;20423;-77
2022/05/06 04:42:35;;;;;;;15.48;7.10;;;14.70;63.40;;;;;;5114575;28;20089;-77
2022/05/06 04:45:02;;;;;;;13.98;6.78;;;14.80;63.60;;;;;;5095158;28;20036;-77
2022/05/06 04:47:28;;;;;;;12.73;5.80;;;14.80;63.50;;;;;;5075265;28;20122;-74
2022/05/06 04:49:54;;;;;;;13.52;6.95;;;14.80;63.30;;;;;;5058985;28;20036;-77
2022/05/06 04:52:20;;;;;;;10.95;6.28;;;14.90;63.30;;;;;;5075171;28;20054;-75
2022/05/06 04:54:46;;;;;;;11.27;6.63;;;14.90;63.10;;;;;;5093688;28;20063;-74
2022/05/06 04:57:12;;;;;;;11.48;6.43;;;14.90;63.00;;;;;;5075041;28;20100;-77
2022/05/06 04:59:38;;;;;;;15.05;6.18;;;15.00;63.10;;;;;;5075333;28;20051;-77
2022/05/06 05:02:05;;;;;;;11.00;6.85;;;15.00;63.10;;;;;;5088018;28;20028;-77
2022/05/06 05:04:31;;;;;;;14.93;7.50;;;15.10;63.10;;;;;;5092344;28;20377;-75
2022/05/06 05:06:57;;;;;;;16.02;9.02;;;15.00;63.00;;;;;;5093334;28;20028;-77
2022/05/06 05:09:23;;;;;;;15.13;8.35;;;15.10;63.00;;;;;;5074998;28;20057;-73
2022/05/06 05:11:50;;;;;;;12.88;8.27;;;15.20;63.20;;;;;;5092825;28;20423;-74
2022/05/06 05:14:16;;;;;;;20.67;10.68;;;15.10;63.30;;;;;;5092109;28;20036;-73
2022/05/06 05:16:42;;;;;;;26.00;14.07;;;15.20;63.20;;;;;;5090688;28;20043;-73
2022/05/06 05:19:08;;;;;;;;;;;15.20;62.40;;;;;;5092424;28;20036;-75
2022/05/06 05:21:34;;;;;;;16.85;7.97;;;15.20;62.40;;;;;;5091444;28;19919;-74
2022/05/06 05:24:00;;;;;;;19.35;13.07;;;15.30;62.60;;;;;;5094805;28;20108;-74
2022/05/06 05:26:26;;;;;;;16.63;7.28;;;15.30;62.90;;;;;;5094879;28;20035;-77
2022/05/06 05:28:52;;;;;;;20.05;8.38;;;15.30;63.30;;;;;;5113420;28;20039;-73
2022/05/06 05:31:18;;;;;;;16.10;7.38;;;15.30;63.30;;;;;;5094192;28;20388;-75
2022/05/06 05:33:44;;;;;;;17.80;8.63;;;15.20;63.20;;;;;;5113305;28;20085;-75
2022/05/06 05:36:10;;;;;;;10.90;6.93;;;15.30;63.40;;;;;;5094729;28;20091;-77
2022/05/06 05:38:38;;;;;;;13.52;8.13;;;15.20;63.30;;;;;;5095136;28;20059;-76
2022/05/06 05:41:05;;;;;;;13.52;7.88;;;15.30;63.20;;;;;;5112814;28;20067;-76
2022/05/06 05:49:00;;;;;;;13.48;7.70;;;15.40;62.80;;;;;;5097827;28;20088;-75
2022/05/06 05:51:26;;;;;;;13.05;9.00;;;15.40;63.00;;;;;;5112782;28;20437;-75
2022/05/06 05:53:52;;;;;;;12.98;8.35;;;15.40;63.10;;;;;;5077961;28;20043;-76
2022/05/06 05:56:18;;;;;;;14.73;7.85;;;15.40;63.00;;;;;;5077449;28;20392;-75
2022/05/06 05:58:45;;;;;;;13.07;8.20;;;15.50;63.00;;;;;;5094807;28;20445;-75
2022/05/06 06:01:11;;;;;;;;;;;15.50;63.00;;;;;;5112360;28;20042;-77
2022/05/06 06:03:37;;;;;;;13.30;7.28;;;15.50;62.40;;;;;;5077983;28;19915;-78
2022/05/06 06:06:03;;;;;;;;;;;15.60;62.70;;;;;;5094814;28;20062;-76
2022/05/06 06:08:29;;;;;;;12.55;7.15;;;15.60;62.20;;;;;;5094632;28;19916;-76
2022/05/06 06:10:56;;;;;;;16.17;8.18;;;15.60;62.60;;;;;;5112483;28;20036;-78
2022/05/06 06:13:22;;;;;;;13.63;7.80;;;15.70;62.60;;;;;;5094684;28;20040;-78
2022/05/06 06:15:48;;;;;;;;;;;15.70;62.70;;;;;;5093995;28;20081;-78
2022/05/06 06:18:15;;;;;;;14.98;8.13;;;15.70;62.00;;;;;;5091237;28;19920;-79
2022/05/06 06:20:42;;;;;;;13.20;8.32;;;15.80;62.40;;;;;;5091989;28;20035;-79
2022/05/06 06:23:08;;;;;;;14.95;7.72;;;15.70;62.10;;;;;;5092940;28;20028;-78
2022/05/06 06:25:35;;;;;;;14.45;8.00;;;15.70;62.90;;;;;;5092042;28;20085;-74
2022/05/06 06:28:01;;;;;;;14.82;7.82;;;15.80;62.90;;;;;;5074740;28;20114;-79
2022/05/06 06:30:28;;;;;;;14.60;7.35;;;15.80;63.20;;;;;;5092034;28;20044;-79
2022/05/06 06:32:54;;;;;;;11.95;7.57;;;15.80;64.00;;;;;;5111476;28;20500;-74
2022/05/06 06:35:21;;;;;;;;;;;15.80;63.50;;;;;;5081695;28;20030;-75
2022/05/06 06:37:47;;;;;;;;;;;15.80;62.30;;;;;;5117640;28;19916;-75
2022/05/06 06:40:13;;;;;;;33.58;8.07;;;15.80;62.50;;;;;;5097972;28;20288;-79
2022/05/06 06:42:41;;;;;;;;;;;15.80;62.30;;;;;;5099007;28;20435;-78
2022/05/06 06:45:08;;;;;;;12.95;7.82;;;15.80;62.50;;;;;;5098329;28;19976;-78
2022/05/06 06:47:35;;;;;;;12.98;7.43;;;15.80;62.50;;;;;;5097130;28;20388;-79
2022/05/06 06:50:02;;;;;;;11.95;7.10;;;15.90;63.40;;;;;;5116577;28;20110;-78
2022/05/06 06:52:28;;;;;;;10.35;6.78;;;16.00;63.30;;;;;;5097809;28;20049;-74
2022/05/06 06:54:54;;;;;;;14.27;7.38;;;16.10;63.50;;;;;;5116397;28;20036;-75
2022/05/06 06:57:20;;;;;;;;;;;16.10;63.60;;;;;;5098320;28;20080;-75
2022/05/06 06:59:46;;;;;;;11.77;6.45;;;16.20;62.80;;;;;;5116327;28;20288;-76
2022/05/06 07:02:12;;;;;;;10.70;6.03;;;16.20;63.20;;;;;;5096904;28;20472;-79
2022/05/06 07:04:38;;;;;;;10.40;6.35;;;16.20;63.40;;;;;;5098046;28;20070;-75
2022/05/06 07:12:34;;;;;;;11.18;5.75;;;16.20;63.40;;;;;;5100888;28;20034;-73
2022/05/06 07:15:02;;;;;;;12.98;5.63;;;16.10;63.30;;;;;;5080950;28;20404;-73
2022/05/06 07:17:29;;;;;;;11.20;5.60;;;16.10;63.50;;;;;;5114787;28;20036;-74
2022/05/06 07:19:55;;;;;;;7.82;5.03;;;16.10;63.00;;;;;;5097625;28;20036;-75
2022/05/06 07:22:21;;;;;;;14.15;5.93;;;16.10;63.70;;;;;;5097078;28;20040;-73
2022/05/06 07:24:47;;;;;;;10.88;5.50;;;16.10;64.70;;;;;;5115835;28;20052;-77
2022/05/06 07:27:14;;;;;;;;;;;16.10;63.70;;;;;;5097902;28;20122;-72
2022/05/06 07:29:40;;;;;;;8.82;5.72;;;16.20;62.90;;;;;;5097525;28;20412;-73
2022/05/06 07:32:08;;;;;;;9.27;5.45;;;16.20;62.20;;;;;;5096296;28;20042;-73
2022/05/06 07:34:34;;;;;;;9.00;5.43;;;16.30;62.50;;;;;;5097739;28;20032;-77
2022/05/06 07:37:01;;;;;;;12.57;5.50;;;16.30;63.00;;;;;;5096858;28;20396;-72
2022/05/06 07:39:27;;;;;;;9.80;5.20;;;16.40;62.90;;;;;;5097401;28;20042;-75
2022/05/06 07:41:53;;;;;;;;;;;16.40;62.70;;;;;;5115739;28;20035;-76
2022/05/06 07:44:19;;;;;;;8.95;5.18;;;16.50;62.50;;;;;;5097301;28;19976;-76
2022/05/06 07:46:45;;;;;;;8.90;5.05;;;16.60;62.60;;;;;;5114357;28;20499;-76
2022/05/06 07:49:11;;;;;;;10.07;5.70;;;16.60;62.40;;;;;;5097176;28;20036;-77
2022/05/06 07:51:38;;;;;;;8.82;5.20;;;16.70;62.10;;;;;;5114818;28;20361;-77
2022/05/06 07:54:04;;;;;;;8.50;5.35;;;16.80;61.70;;;;;;5096914;28;20393;-72
2022/05/06 07:56:31;;;;;;;9.38;4.75;;;16.90;61.40;;;;;;5096688;28;20536;-72
2022/05/06 07:58:57;;;;;;;10.20;5.18;;;17.00;61.50;;;;;;5096865;28;20074;-75
2022/05/06 08:06:54;;;;;;;6.88;4.05;;;17.10;60.50;;;;;;5098940;28;20112;-72
2022/05/06 08:09:20;;;;;;;7.97;4.43;;;17.30;60.10;;;;;;5079650;28;20058;-81
2022/05/06 08:11:48;;;;;;;10.68;4.55;;;17.40;59.30;;;;;;5114791;28;20108;-73
2022/05/06 08:14:16;;;;;;;9.20;4.65;;;17.60;59.20;;;;;;5096727;28;20027;-78
2022/05/06 08:17:01;;;;;;;7.95;4.50;;;17.70;59.20;;;;;;5078925;28;20122;-73
2022/05/06 08:19:28;;;;;;;6.80;3.78;;;17.90;58.40;;;;;;5079407;28;20042;-81
2022/05/06 08:21:55;;;;;;;7.20;4.32;;;17.90;58.20;;;;;;5096207;28;20020;-73
2022/05/06 08:24:22;;;;;;;9.52;4.20;;;17.90;58.70;;;;;;5096334;28;20147;-78
2022/05/06 08:26:49;;;;;;;7.88;4.07;;;17.90;57.50;;;;;;5079147;28;20135;-77
2022/05/06 08:29:15;;;;;;;6.85;4.00;;;17.80;57.40;;;;;;5096171;28;20063;-77
2022/05/06 08:31:42;;;;;;;9.15;3.72;;;17.70;58.00;;;;;;5114330;28;20039;-80
2022/05/06 08:34:11;;;;;;;7.45;3.75;;;17.70;57.20;;;;;;5095557;28;20458;-76
2022/05/06 08:36:40;;;;;;;6.90;3.80;;;17.60;57.80;;;;;;5095990;28;20065;-75
2022/05/06 08:39:08;;;;;;;7.18;3.83;;;17.50;57.90;;;;;;5096085;28;20027;-76
2022/05/06 08:41:54;;;;;;;6.22;3.85;;;17.60;58.00;;;;;;5095592;28;20084;-73
2022/05/06 08:52:54;;;;;;;6.70;3.90;;;17.70;58.60;;;;;;5078612;28;20117;-73
2022/05/06 08:55:20;;;;;;;9.07;3.70;;;17.80;59.00;;;;;;5074858;28;20038;-79
2022/05/06 08:57:46;;;;;;;7.30;4.20;;;17.90;59.00;;;;;;5075586;28;20086;-78
2022/05/06 09:00:14;;;;;;;7.55;3.97;;;17.90;59.00;;;;;;5058169;28;20512;-75
2022/05/06 09:02:40;;;;;;;8.45;4.05;;;18.00;58.70;;;;;;5079687;28;20035;-79
2022/05/06 09:05:24;;;;;;;7.30;4.10;;;18.00;58.30;;;;;;5095498;28;20122;-79
2022/05/06 09:08:13;;;;;;;7.78;4.13;;;18.10;59.20;;;;;;5114086;28;20499;-79
2022/05/06 09:10:39;;;;;;;7.18;4.22;;;18.20;59.30;;;;;;5113364;28;20028;-80
2022/05/06 09:13:06;;;;;;;8.38;4.03;;;18.30;58.90;;;;;;5095491;28;20039;-74
2022/05/06 09:18:37;;;;;;;8.52;3.95;;;18.30;58.50;;;;;;5097407;28;19945;-79
2022/05/06 09:21:22;;;;;;;6.60;3.50;;;18.30;58.30;;;;;;5095158;28;20599;-80
2022/05/06 09:23:48;;;;;;;6.03;3.22;;;18.30;58.10;;;;;;5111286;28;20046;-75
2022/05/06 09:26:16;;;;;;;;;;;18.40;57.20;;;;;;5093395;28;20111;-79
2022/05/06 09:28:43;;;;;;;6.65;3.72;;;18.50;57.30;;;;;;5075068;28;20424;-75
2022/05/06 09:31:10;;;;;;;11.93;3.53;;;18.80;57.10;;;;;;5074772;28;20086;-78
2022/05/06 09:34:09;;;;;;;7.22;3.53;;;18.90;56.30;;;;;;5084778;28;20035;-80
2022/05/06 09:36:35;;;;;;;8.55;3.42;;;18.90;56.40;;;;;;5077873;28;20069;-75
2022/05/06 09:39:25;;;;;;;;;;;18.80;56.10;;;;;;5113862;28;20401;-75
2022/05/06 09:42:03;;;;;;;7.22;3.47;;;18.80;56.30;;;;;;5094709;28;20440;-79
2022/05/06 09:44:30;;;;;;;6.47;3.42;;;18.80;55.80;;;;;;5078326;28;20550;-76
2022/05/06 09:47:20;;;;;;;6.25;3.33;;;18.80;55.00;;;;;;5113075;28;20027;-79
2022/05/06 09:49:46;;;;;;;6.63;3.05;;;18.90;55.70;;;;;;5094529;28;20030;-75
2022/05/06 09:52:14;;;;;;;7.22;3.50;;;19.10;56.10;;;;;;5112831;28;20036;-75
2022/05/06 09:54:42;;;;;;;8.13;3.90;;;19.20;55.40;;;;;;5094897;28;20373;-75
2022/05/06 09:57:27;;;;;;;5.55;3.13;;;19.30;55.50;;;;;;5094589;28;20480;-74
2022/05/06 09:59:53;;;;;;;6.10;3.10;;;19.60;54.60;;;;;;5077966;28;20044;-75
2022/05/06 10:02:19;;;;;;;;;;;19.50;54.40;;;;;;5095000;28;20040;-78
2022/05/06 10:04:48;;;;;;;6.13;3.05;;;19.60;54.50;;;;;;5112215;28;20386;-74
2022/05/06 10:07:17;;;;;;;7.75;3.30;;;19.70;53.90;;;;;;5095750;28;20450;-79
2022/05/06 10:10:23;;;;;;;7.47;3.08;;;19.80;53.50;;;;;;5117188;28;20028;-75
2022/05/06 10:13:28;;;;;;;6.50;3.40;;;20.00;53.20;;;;;;5081918;28;20104;-80
2022/05/06 10:15:55;;;;;;;6.38;3.35;;;20.10;53.20;;;;;;5098679;28;20066;-75
2022/05/06 10:18:41;;;;;;;5.55;2.80;;;20.10;52.50;;;;;;5077581;28;20028;-78
2022/05/06 10:21:09;;;;;;;6.20;3.13;;;20.30;52.10;;;;;;5077587;28;20034;-74
2022/05/06 10:23:55;;;;;;;7.78;2.75;;;20.50;51.70;;;;;;5078544;28;20044;-79
2022/05/06 10:27:00;;;;;;;5.63;3.30;;;20.70;51.30;;;;;;5076160;28;20035;-80
2022/05/06 10:33:07;;;;;;;9.20;3.38;;;20.80;49.70;;;;;;5096480;28;20078;-75
2022/05/06 10:35:51;;;;;;;5.82;2.83;;;20.90;50.10;;;;;;5075692;28;20043;-79
2022/05/06 10:38:47;;;;;;;5.93;2.85;;;21.10;50.20;;;;;;5057871;28;20405;-79
2022/05/06 10:41:24;;;;;;;6.38;2.90;;;21.00;50.00;;;;;;5057545;28;20546;-78
2022/05/06 10:43:51;;;;;;;5.70;2.50;;;20.80;49.40;;;;;;5058010;28;20029;-75
2022/05/06 10:46:37;;;;;;;5.85;3.33;;;20.70;50.10;;;;;;5057327;28;20025;-78
2022/05/06 10:52:28;;;;;;;6.40;2.92;;;20.80;49.90;;;;;;5095945;28;20549;-79
2022/05/06 10:55:15;;;;;;;6.03;3.25;;;20.80;50.00;;;;;;5077794;28;20040;-75
2022/05/06 10:58:10;;;;;;;6.50;3.13;;;20.80;50.30;;;;;;5077923;28;20058;-79
2022/05/06 11:00:39;;;;;;;7.50;4.10;;;20.80;50.30;;;;;;5095505;28;20043;-78
2022/05/06 11:03:06;;;;;;;6.72;3.17;;;20.80;49.60;;;;;;5077795;28;20059;-78
2022/05/06 11:05:33;;;;;;;7.38;3.88;;;20.70;49.20;;;;;;5076951;28;20109;-78
2022/05/06 11:08:02;;;;;;;6.45;3.50;;;20.60;49.40;;;;;;5077944;28;20556;-80
2022/05/06 11:10:33;;;;;;;6.53;3.33;;;20.60;49.70;;;;;;5077238;28;20040;-75
2022/05/06 11:13:00;;;;;;;6.40;3.50;;;20.70;50.10;;;;;;5060733;28;20024;-78
2022/05/06 11:15:48;;;;;;;6.10;3.38;;;20.90;50.40;;;;;;5076965;28;20062;-75
2022/05/06 11:18:14;;;;;;;6.72;3.40;;;21.10;49.60;;;;;;5076283;28;20047;-78
2022/05/06 11:20:40;;;;;;;;;;;21.40;49.70;;;;;;5095251;28;20040;-76
2022/05/06 11:23:29;;;;;;;7.90;3.53;;;21.60;49.10;;;;;;5060519;28;19912;-78
2022/05/06 11:25:55;;;;;;;5.47;3.05;;;21.70;48.90;;;;;;5060324;28;20052;-75
2022/05/06 11:31:11;;;;;;;6.35;3.05;;;22.00;47.80;;;;;;5079999;28;20040;-75
2022/05/06 11:33:38;;;;;;;6.22;3.35;;;22.20;46.40;;;;;;5076296;28;20040;-78
2022/05/06 11:36:08;;;;;;;7.13;3.45;;;22.10;45.80;;;;;;5076828;28;20043;-79
2022/05/06 11:38:52;;;;;;;7.70;3.10;;;22.20;46.50;;;;;;5095176;28;20102;-79
2022/05/06 11:41:19;;;;;;;8.35;3.28;;;22.00;46.70;;;;;;5076394;28;20032;-75
2022/05/06 11:43:47;;;;;;;9.15;3.20;;;22.00;46.80;;;;;;5095150;28;20043;-76
2022/05/06 11:49:35;;;;;;;6.25;3.00;;;21.70;46.60;;;;;;5078854;28;20074;-79
2022/05/06 11:52:01;;;;;;;5.28;3.08;;;21.60;47.00;;;;;;5059758;28;20550;-79
2022/05/06 11:54:28;;;;;;;10.00;3.30;;;21.50;47.00;;;;;;5076683;28;20115;-75
2022/05/06 11:56:54;;;;;;;7.18;3.28;;;21.40;47.40;;;;;;5076513;28;20546;-74
2022/05/06 11:59:21;;;;;;;6.70;2.88;;;21.20;46.90;;;;;;5094735;28;20032;-75
2022/05/06 12:01:47;;;;;;;7.85;3.55;;;21.10;47.10;;;;;;5094353;28;20505;-74
2022/05/06 12:04:13;;;;;;;;;;;21.10;47.70;;;;;;5076134;28;20044;-79
2022/05/06 12:06:47;;;;;;;8.95;3.75;;;21.20;47.50;;;;;;5076188;28;19922;-75
2022/05/06 12:09:42;;;;;;;6.65;3.28;;;21.40;47.40;;;;;;5094562;28;20060;-75
2022/05/06 12:12:10;;;;;;;5.65;2.78;;;21.50;47.20;;;;;;5059500;28;20552;-78
2022/05/06 12:14:38;;;;;;;7.45;2.88;;;21.90;46.50;;;;;;5076708;28;20036;-74
2022/05/06 12:17:10;;;;;;;5.95;3.03;;;22.40;45.20;;;;;;5059352;28;20056;-78
2022/05/06 12:19:56;;;;;;;10.25;4.03;;;22.80;44.50;;;;;;5075495;28;20070;-74
2022/05/06 12:22:24;;;;;;;6.30;3.40;;;23.00;44.30;;;;;;5094101;28;20090;-75
2022/05/06 12:25:13;;;;;;;7.68;3.15;;;23.20;43.80;;;;;;5104141;28;20075;-77
2022/05/06 12:27:39;;;;;;;5.72;3.00;;;23.20;43.90;;;;;;5096633;28;20096;-75
2022/05/06 12:30:16;;;;;;;;;;;23.20;43.50;;;;;;5113992;28;20042;-75
2022/05/06 12:32:42;;;;;;;8.95;3.00;;;23.40;43.80;;;;;;5114934;28;20010;-75
2022/05/06 12:35:10;;;;;;;;;;;23.40;42.60;;;;;;5095558;28;20587;-75
2022/05/06 12:37:36;;;;;;;6.97;3.28;;;23.40;43.30;;;;;;5079376;28;19998;-79
2022/05/06 12:40:04;;;;;;;8.35;3.00;;;23.40;42.70;;;;;;5079109;28;20438;-75
2022/05/06 12:42:30;;;;;;;8.52;2.97;;;23.30;43.10;;;;;;5078938;28;20031;-73
2022/05/06 12:45:03;;;;;;;;;;;23.50;43.00;;;;;;5114939;28;20046;-73
2022/05/06 12:50:15;;;;;;;9.07;3.08;;;23.40;42.20;;;;;;5097520;28;20139;-74
2022/05/06 12:52:42;;;;;;;7.65;2.90;;;23.60;42.20;;;;;;5095937;28;20039;-72
2022/05/06 12:55:08;;;;;;;5.80;3.17;;;23.80;41.70;;;;;;5095318;28;20051;-73
2022/05/06 12:57:34;;;;;;;7.32;2.78;;;23.70;41.30;;;;;;5095884;28;20092;-75
2022/05/06 13:00:00;;;;;;;;;;;23.60;42.40;;;;;;5086475;28;20047;-73
2022/05/06 13:02:26;;;;;;;6.45;3.10;;;23.50;42.90;;;;;;5074838;28;19916;-76
2022/05/06 13:04:52;;;;;;;7.00;3.45;;;23.50;41.70;;;;;;5099357;28;20046;-73
2022/05/06 13:07:18;;;;;;;;;;;23.60;41.50;;;;;;5095399;28;20362;-76
2022/05/06 13:09:44;;;;;;;7.32;2.40;;;23.60;42.10;;;;;;5113881;28;19922;-73
2022/05/06 13:12:12;;;;;;;;;;;23.40;42.00;;;;;;5095906;28;20215;-75
2022/05/06 13:14:37;;;;;;;;;;;23.00;41.80;;;;;;5079199;28;20269;-72
2022/05/06 13:17:04;;;;;;;9.38;2.85;;;22.80;42.90;;;;;;5078182;28;19926;-76
2022/05/06 13:19:30;;;;;;;7.85;3.28;;;22.70;43.70;;;;;;5094347;28;20042;-72
2022/05/06 13:22:16;;;;;;;6.18;2.72;;;22.60;44.20;;;;;;5095122;28;20031;-75
2022/05/06 13:24:43;;;;;;;7.20;2.97;;;22.50;45.00;;;;;;5113492;28;20043;-79
2022/05/06 13:27:09;;;;;;;;;;;22.20;45.60;;;;;;5095339;28;20080;-75
2022/05/06 13:29:36;;;;;;;6.03;2.67;;;22.00;45.60;;;;;;5095470;28;19924;-75
2022/05/06 13:32:02;;;;;;;;;;;21.80;46.60;;;;;;5095470;28;20032;-77
2022/05/06 13:34:28;;;;;;;6.15;3.00;;;21.80;45.60;;;;;;5094491;28;19939;-79
2022/05/06 13:36:56;;;;;;;;;;;21.70;47.40;;;;;;5113490;28;20525;-75
2022/05/06 13:39:22;;;;;;;5.38;2.90;;;21.70;46.70;;;;;;5095433;28;19923;-79
2022/05/06 13:41:48;;;;;;;;;;;21.60;47.20;;;;;;5095195;28;20649;-79
2022/05/06 13:44:14;;;;;;;6.07;2.67;;;21.50;46.80;;;;;;5113218;28;19915;-75
2022/05/06 13:46:41;;;;;;;;;;;21.40;47.50;;;;;;5078540;28;20034;-75
2022/05/06 13:49:07;;;;;;;8.25;2.45;;;21.20;47.30;;;;;;5113141;28;19916;-75
2022/05/06 13:51:33;;;;;;;;;;;21.00;48.60;;;;;;5094183;28;20126;-75
2022/05/06 13:53:59;;;;;;;6.82;2.35;;;20.80;48.30;;;;;;5094887;28;20401;-74
2022/05/06 13:59:11;;;;;;;5.95;2.60;;;20.80;48.80;;;;;;5113253;28;20276;-75
2022/05/06 14:01:38;;;;;;;8.57;2.78;;;20.70;49.30;;;;;;5094412;28;20027;-75